Search for airport 
image banner adimage banner adimage banner ad
image banner ad

4PA9 - Macungie Mack

Located in Macungie, United States

ICAO - 4PA9, IATA -

Data provided by Airmate  

General information

Coordinates: N40°30'0" W75°33'59"
Elevation is 400 feet MSL.
Magnetic variation is -11° East
View others Airports in Pennsylvania

Operational data

Special qualification required
Current time UTC:
Current local time:
Weather at : KXLL - Allentown Queen City Muni ( 10 km )
METAR: KXLL 091335Z AUTO 25005KT 10SM CLR 10/04 A3010 RMK AO2
View NOTAMs / SUP AIP / TFR affecting this airport [VIEW]
Communications frequencies: [VIEW]

Runways:

Airport contact information

Address: Macungie United States

Satellite view of 4PA9